Time;durP1;ratioP1;P1;durP2;ratioP2;P2;SDS_P1;SDS_P2;PMS_P1;PMS_P2;Temp;Humidity;BMP_temperature;BMP_pressure;BME280_temperature;BME280_humidity;BME280_pressure;Samples;Min_cycle;Max_cycle;Signal;HPM_P1;HPM_P2
2022/12/03 00:00:37;;;;;;;7.60;5.93;;;5.10;99.90;;;;;;5051797;28;20212;-76
2022/12/03 00:03:02;;;;;;;8.83;6.10;;;5.10;99.90;;;;;;5033456;28;20623;-76
2022/12/03 00:05:28;;;;;;;8.60;6.70;;;5.10;99.90;;;;;;5033717;28;20195;-77
2022/12/03 00:07:54;;;;;;;9.30;7.13;;;5.20;99.90;;;;;;5034285;28;20173;-77
2022/12/03 00:10:19;;;;;;;8.57;6.33;;;5.20;99.90;;;;;;5033773;28;20173;-78
2022/12/03 00:12:45;;;;;;;6.53;5.07;;;5.20;99.90;;;;;;5051858;28;20195;-77
2022/12/03 00:15:11;;;;;;;6.30;4.90;;;5.20;99.90;;;;;;5051450;28;20209;-77
2022/12/03 00:17:37;;;;;;;7.43;5.93;;;5.20;99.90;;;;;;4981876;28;20629;-74
2022/12/03 00:20:05;;;;;;;7.60;6.30;;;5.20;99.90;;;;;;4992011;28;20639;-75
2022/12/03 00:22:31;;;;;;;6.30;5.53;;;5.20;99.90;;;;;;4992566;28;20561;-74
2022/12/03 00:24:57;;;;;;;8.00;6.50;;;5.20;99.90;;;;;;5009724;28;20664;-75
2022/12/03 00:27:22;;;;;;;8.83;5.33;;;5.30;99.90;;;;;;5009855;28;20181;-74
2022/12/03 00:29:48;;;;;;;9.83;7.20;;;5.30;99.90;;;;;;5010353;28;20215;-74
2022/12/03 00:32:14;;;;;;;8.40;5.90;;;5.30;99.90;;;;;;4992242;28;20248;-74
2022/12/03 00:34:39;;;;;;;8.80;6.70;;;5.30;99.90;;;;;;5009716;28;20210;-74
2022/12/03 00:37:05;;;;;;;7.63;5.77;;;5.30;99.90;;;;;;5009494;28;20182;-74
2022/12/03 00:39:31;;;;;;;5.93;4.60;;;5.40;99.90;;;;;;5010203;28;20222;-73
2022/12/03 00:41:57;;;;;;;7.00;5.80;;;5.40;99.90;;;;;;4992074;28;20229;-74
2022/12/03 00:44:22;;;;;;;6.17;5.03;;;5.40;99.90;;;;;;4992033;28;20224;-72
2022/12/03 00:46:48;;;;;;;6.70;4.60;;;5.40;99.90;;;;;;4992126;28;20178;-72
2022/12/03 00:49:14;;;;;;;7.17;5.60;;;5.40;99.90;;;;;;4991895;28;20213;-72
2022/12/03 00:51:39;;;;;;;5.60;4.60;;;5.40;99.90;;;;;;5009547;28;20174;-71
2022/12/03 00:54:05;;;;;;;7.20;5.30;;;5.50;99.90;;;;;;5009220;28;20163;-71
2022/12/03 00:56:31;;;;;;;6.90;5.50;;;5.40;99.90;;;;;;5022244;28;20204;-72
2022/12/03 00:58:56;;;;;;;7.53;4.80;;;5.50;99.90;;;;;;5031349;28;20173;-75
2022/12/03 01:01:22;;;;;;;5.57;4.83;;;5.50;99.90;;;;;;5031384;28;20680;-74
2022/12/03 01:03:48;;;;;;;7.33;6.50;;;5.50;99.90;;;;;;5049197;28;20175;-74
2022/12/03 01:06:14;;;;;;;6.90;6.20;;;5.50;99.90;;;;;;5049219;28;20196;-74
2022/12/03 01:08:39;;;;;;;6.88;5.72;;;5.50;99.90;;;;;;5048627;28;20181;-74
2022/12/03 01:11:36;;;;;;;7.37;6.30;;;5.60;99.90;;;;;;5048914;28;20253;-74
2022/12/03 01:13:54;;;;;;;6.25;5.25;;;5.60;99.90;;;;;;5031048;28;20169;-77
2022/12/03 01:16:20;;;;;;;7.07;6.43;;;5.60;99.90;;;;;;5048715;28;20196;-77
2022/12/03 01:18:46;;;;;;;6.07;5.23;;;5.60;99.90;;;;;;5048555;28;20169;-75
2022/12/03 01:21:11;;;;;;;6.90;4.27;;;5.60;99.90;;;;;;5048960;28;20172;-75
2022/12/03 01:23:37;;;;;;;5.40;4.00;;;5.60;99.90;;;;;;5048697;28;20169;-73
2022/12/03 01:26:03;;;;;;;5.93;5.03;;;5.60;99.90;;;;;;5030934;28;20205;-76
2022/12/03 01:28:30;;;;;;;6.17;5.00;;;5.60;99.90;;;;;;5030146;28;20177;-76
2022/12/03 01:33:40;;;;;;;7.43;4.72;;;5.60;99.90;;;;;;5048668;28;20197;-73
2022/12/03 01:36:06;;;;;;;6.83;5.07;;;5.70;99.90;;;;;;5048475;28;20236;-73
2022/12/03 01:38:31;;;;;;;7.23;5.60;;;5.70;99.90;;;;;;5048201;28;20499;-74
2022/12/03 01:40:57;;;;;;;6.03;4.33;;;5.70;99.90;;;;;;5048435;28;20926;-76
2022/12/03 01:43:23;;;;;;;5.40;4.25;;;5.70;99.90;;;;;;5031591;28;20201;-78
2022/12/03 01:45:49;;;;;;;4.93;4.03;;;5.70;99.90;;;;;;5051771;28;20203;-76
2022/12/03 01:48:16;;;;;;;6.00;4.40;;;5.70;99.90;;;;;;5030590;28;20177;-76
2022/12/03 01:50:42;;;;;;;7.45;5.75;;;5.80;99.90;;;;;;5040022;28;20672;-76
2022/12/03 01:53:13;;;;;;;6.50;5.80;;;5.70;99.90;;;;;;5028535;28;20185;-76
2022/12/03 01:55:40;;;;;;;8.63;7.05;;;5.70;99.90;;;;;;5011553;28;20310;-76
2022/12/03 01:58:10;;;;;;;7.65;5.88;;;5.70;99.90;;;;;;5029173;28;20170;-76
2022/12/03 02:00:35;;;;;;;5.93;4.72;;;5.70;99.90;;;;;;5011366;28;20170;-77
2022/12/03 02:03:07;;;;;;;7.20;4.70;;;5.70;99.90;;;;;;5015196;28;20177;-77
2022/12/03 02:05:33;;;;;;;6.95;5.28;;;5.70;99.90;;;;;;5044705;28;20244;-77
2022/12/03 02:07:59;;;;;;;6.15;5.25;;;5.80;99.90;;;;;;5044051;28;20173;-76
2022/12/03 02:10:31;;;;;;;5.97;5.38;;;5.70;99.90;;;;;;5045657;28;20177;-76
2022/12/03 02:13:01;;;;;;;7.32;4.93;;;5.70;99.90;;;;;;5048167;28;20165;-79
2022/12/03 02:15:27;;;;;;;6.57;4.80;;;5.80;99.90;;;;;;5044822;28;20204;-79
2022/12/03 02:17:54;;;;;;;7.03;5.70;;;5.80;99.90;;;;;;5039862;28;20154;-79
2022/12/03 02:20:20;;;;;;;9.02;6.05;;;5.80;99.90;;;;;;5033357;28;21188;-79
2022/12/03 02:23:04;;;;;;;6.20;4.80;;;5.80;99.90;;;;;;5038989;28;20193;-79
2022/12/03 02:25:33;;;;;;;6.40;5.35;;;5.80;99.90;;;;;;5034304;28;20266;-79
2022/12/03 02:28:00;;;;;;;5.93;4.75;;;5.90;99.90;;;;;;5033783;28;20200;-79
2022/12/03 02:30:28;;;;;;;6.28;5.40;;;5.90;99.90;;;;;;5032722;28;20165;-79
2022/12/03 02:32:55;;;;;;;7.05;5.32;;;5.90;99.90;;;;;;5032509;28;20220;-80
2022/12/03 02:35:24;;;;;;;5.43;4.63;;;5.90;99.90;;;;;;5032841;28;20216;-79
2022/12/03 02:38:06;;;;;;;5.55;4.40;;;5.90;99.90;;;;;;5032181;28;20173;-80
2022/12/03 02:40:33;;;;;;;4.30;3.90;;;5.90;99.90;;;;;;5032840;28;20170;-79
2022/12/03 02:43:01;;;;;;;5.80;4.97;;;5.90;99.90;;;;;;5032052;28;20582;-79
2022/12/03 02:45:30;;;;;;;6.35;4.90;;;5.90;99.90;;;;;;5030918;28;20181;-80
2022/12/03 02:48:09;;;;;;;6.60;5.90;;;5.90;99.90;;;;;;5031815;28;20560;-80
2022/12/03 02:50:44;;;;;;;6.40;5.47;;;5.90;99.90;;;;;;5032265;28;20683;-80
2022/12/03 02:53:19;;;;;;;6.28;5.13;;;5.90;99.90;;;;;;5031723;28;20177;-79
2022/12/03 02:55:46;;;;;;;6.60;4.60;;;5.90;99.90;;;;;;5031029;28;20207;-79
2022/12/03 02:58:12;;;;;;;6.90;6.20;;;5.90;99.90;;;;;;5033321;28;20247;-79
2022/12/03 03:00:39;;;;;;;7.10;5.40;;;5.90;99.90;;;;;;5035154;28;20158;-79
2022/12/03 03:03:06;;;;;;;7.63;6.00;;;5.90;99.90;;;;;;5031524;28;20168;-80
2022/12/03 03:05:34;;;;;;;6.63;6.00;;;5.90;99.90;;;;;;5031923;28;20186;-77
2022/12/03 03:08:00;;;;;;;6.25;5.65;;;5.90;99.90;;;;;;5031355;28;20170;-80
2022/12/03 03:10:27;;;;;;;6.50;5.40;;;5.90;99.90;;;;;;5030749;28;20173;-80
2022/12/03 03:12:54;;;;;;;7.07;6.32;;;5.90;99.90;;;;;;5031316;28;20169;-79
2022/12/03 03:15:22;;;;;;;6.40;5.35;;;5.90;99.90;;;;;;5031519;28;20212;-79
2022/12/03 03:17:48;;;;;;;5.65;4.65;;;5.90;99.90;;;;;;5031253;28;20166;-79
2022/12/03 03:20:14;;;;;;;6.40;4.93;;;5.90;99.90;;;;;;5030482;28;20172;-77
2022/12/03 03:22:42;;;;;;;6.60;5.72;;;5.90;99.90;;;;;;5031090;28;20560;-77
2022/12/03 03:25:15;;;;;;;8.15;6.50;;;5.90;99.90;;;;;;5030672;28;20201;-77
2022/12/03 03:27:42;;;;;;;7.22;5.68;;;5.90;99.90;;;;;;5030936;28;20181;-79
2022/12/03 03:30:10;;;;;;;6.30;5.63;;;5.90;99.90;;;;;;5030910;28;20238;-77
2022/12/03 03:32:37;;;;;;;6.90;5.95;;;5.90;99.90;;;;;;5013464;28;20169;-77
2022/12/03 03:35:03;;;;;;;7.25;6.20;;;5.90;99.90;;;;;;5013254;28;20292;-77
2022/12/03 03:37:29;;;;;;;9.07;7.20;;;5.90;99.90;;;;;;5034188;28;20663;-77
2022/12/03 03:39:55;;;;;;;6.30;5.27;;;5.80;99.90;;;;;;5030824;28;20257;-77
2022/12/03 03:42:21;;;;;;;10.00;6.00;;;5.90;99.90;;;;;;5030844;28;20956;-77
2022/12/03 03:44:48;;;;;;;8.82;6.60;;;5.80;99.90;;;;;;5030783;28;20631;-77
2022/12/03 03:47:15;;;;;;;7.25;6.13;;;5.80;99.90;;;;;;5030421;28;20198;-77
2022/12/03 03:49:41;;;;;;;9.23;6.13;;;5.80;99.90;;;;;;4996708;28;20176;-78
2022/12/03 03:52:10;;;;;;;8.00;6.20;;;5.80;99.90;;;;;;5029993;28;20638;-78
2022/12/03 03:54:37;;;;;;;8.35;6.53;;;5.80;99.90;;;;;;5030137;28;20201;-78
2022/12/03 03:57:04;;;;;;;8.90;6.05;;;5.70;99.90;;;;;;5011916;28;20174;-78
2022/12/03 03:59:29;;;;;;;7.90;6.18;;;5.70;99.90;;;;;;4996149;28;20170;-77
2022/12/03 04:01:55;;;;;;;7.50;5.93;;;5.70;99.90;;;;;;5029645;28;20158;-77
2022/12/03 04:04:25;;;;;;;8.13;6.50;;;5.70;99.90;;;;;;5030278;28;20193;-77
2022/12/03 04:06:51;;;;;;;7.43;5.90;;;5.70;99.90;;;;;;5029568;28;20166;-77
2022/12/03 04:09:16;;;;;;;8.33;6.50;;;5.70;99.90;;;;;;5030657;28;20832;-77
2022/12/03 04:14:26;;;;;;;8.00;6.10;;;5.70;99.90;;;;;;5035495;28;20232;-77
2022/12/03 04:16:52;;;;;;;9.37;6.77;;;5.70;99.90;;;;;;5011896;28;20202;-77
2022/12/03 04:19:18;;;;;;;8.17;5.50;;;5.70;99.90;;;;;;4996283;28;20169;-77
2022/12/03 04:24:28;;;;;;;8.32;6.38;;;5.70;99.90;;;;;;5030275;28;20632;-77
2022/12/03 04:29:38;;;;;;;8.43;6.60;;;5.70;99.90;;;;;;5011998;28;20205;-77
2022/12/03 04:37:32;;;;;;;8.48;6.40;;;5.70;99.90;;;;;;5029519;28;20606;-77
2022/12/03 04:39:58;;;;;;;7.97;6.07;;;5.80;99.90;;;;;;5030041;28;20223;-77
2022/12/03 04:42:24;;;;;;;7.33;5.90;;;5.70;99.90;;;;;;5029515;28;20169;-77
2022/12/03 04:44:50;;;;;;;9.03;6.67;;;5.80;99.90;;;;;;5030098;28;20225;-77
2022/12/03 04:47:18;;;;;;;8.73;6.70;;;5.70;99.90;;;;;;5029749;28;20168;-78
2022/12/03 04:49:46;;;;;;;9.63;6.60;;;5.70;99.90;;;;;;5029980;28;20170;-78
2022/12/03 04:52:14;;;;;;;9.43;7.22;;;5.80;99.90;;;;;;5034915;28;20268;-78
2022/12/03 04:54:40;;;;;;;8.85;6.88;;;5.80;99.90;;;;;;5029581;28;20193;-78
2022/12/03 04:57:06;;;;;;;9.65;7.22;;;5.80;99.90;;;;;;5011522;28;20264;-78
2022/12/03 04:59:33;;;;;;;9.35;6.97;;;5.80;99.90;;;;;;5029413;28;20206;-78
2022/12/03 05:01:58;;;;;;;8.57;6.45;;;5.80;99.90;;;;;;5029817;28;20165;-77
2022/12/03 05:04:24;;;;;;;6.97;5.40;;;5.80;99.90;;;;;;5029822;28;20249;-77
2022/12/03 05:06:50;;;;;;;8.67;6.47;;;5.80;99.90;;;;;;5011997;28;20208;-77
2022/12/03 05:09:16;;;;;;;8.60;7.60;;;5.80;99.90;;;;;;5012194;28;20615;-78
2022/12/03 05:11:42;;;;;;;10.80;7.10;;;5.80;99.90;;;;;;5011758;28;20181;-78
2022/12/03 05:14:08;;;;;;;11.23;8.30;;;5.80;99.90;;;;;;5029646;28;20561;-78
2022/12/03 05:16:35;;;;;;;9.98;6.80;;;5.80;99.90;;;;;;5029878;28;20181;-78
2022/12/03 05:19:02;;;;;;;10.13;7.40;;;5.80;99.90;;;;;;5029598;28;20180;-78
2022/12/03 05:21:28;;;;;;;9.20;6.75;;;5.80;99.90;;;;;;5029663;28;20173;-78
2022/12/03 05:23:54;;;;;;;9.53;6.50;;;5.80;99.90;;;;;;5029107;28;20245;-78
2022/12/03 05:26:19;;;;;;;9.70;7.43;;;5.80;99.90;;;;;;5011213;28;20749;-78
2022/12/03 05:28:45;;;;;;;10.77;7.53;;;5.80;99.90;;;;;;5016748;28;21062;-78
2022/12/03 05:31:11;;;;;;;8.23;6.50;;;5.80;99.90;;;;;;5029614;28;20178;-78
2022/12/03 05:33:37;;;;;;;9.90;7.00;;;5.80;99.90;;;;;;5029938;28;20177;-78
2022/12/03 05:36:03;;;;;;;10.33;7.43;;;5.80;99.90;;;;;;5012091;28;20201;-78
2022/12/03 05:38:28;;;;;;;10.80;7.70;;;5.80;99.90;;;;;;5029467;28;20172;-78
2022/12/03 05:40:54;;;;;;;10.40;6.60;;;5.80;99.90;;;;;;5031642;28;20753;-78
2022/12/03 05:43:20;;;;;;;12.23;8.20;;;5.80;99.90;;;;;;5033197;28;20216;-78
2022/12/03 05:45:46;;;;;;;9.70;7.63;;;5.80;99.90;;;;;;5055432;22;20220;-75
2022/12/03 05:48:14;;;;;;;9.37;7.10;;;5.90;99.90;;;;;;5024200;28;20655;-75
2022/12/03 05:50:43;;;;;;;9.45;6.25;;;5.80;99.90;;;;;;5052466;28;20166;-75
2022/12/03 05:53:18;;;;;;;7.03;5.38;;;5.80;99.90;;;;;;5052178;28;20175;-75
2022/12/03 05:55:44;;;;;;;10.10;6.60;;;5.80;99.90;;;;;;5057180;28;20201;-75
2022/12/03 05:58:10;;;;;;;8.63;7.00;;;5.80;99.90;;;;;;5053286;28;20251;-75
2022/12/03 06:00:37;;;;;;;7.10;5.93;;;5.80;99.90;;;;;;5051748;28;20256;-75
2022/12/03 06:03:06;;;;;;;8.57;6.70;;;5.80;99.90;;;;;;5034260;28;20180;-75
2022/12/03 06:05:33;;;;;;;8.95;6.55;;;5.80;99.90;;;;;;5052437;28;20805;-75
2022/12/03 06:07:59;;;;;;;9.45;7.63;;;5.80;99.90;;;;;;5055856;28;20616;-74
2022/12/03 06:10:25;;;;;;;8.47;6.50;;;5.80;99.90;;;;;;5051009;28;20258;-75
2022/12/03 06:12:52;;;;;;;9.27;7.18;;;5.80;99.90;;;;;;5051551;28;20571;-75
2022/12/03 06:15:18;;;;;;;7.88;5.53;;;5.80;99.90;;;;;;5051798;28;20655;-75
2022/12/03 06:17:45;;;;;;;7.55;6.05;;;5.90;99.90;;;;;;5051376;28;20552;-75
2022/12/03 06:20:16;;;;;;;8.80;6.72;;;5.90;99.90;;;;;;5051975;28;20169;-75
2022/12/03 06:22:42;;;;;;;10.15;7.80;;;5.90;99.90;;;;;;5051377;28;20254;-75
2022/12/03 06:25:09;;;;;;;7.85;6.53;;;5.90;99.90;;;;;;5050507;28;20184;-75
2022/12/03 06:27:35;;;;;;;8.32;6.28;;;5.90;99.90;;;;;;5051166;28;20524;-74
2022/12/03 06:30:01;;;;;;;8.93;6.88;;;5.90;99.90;;;;;;5033870;28;20673;-75
2022/12/03 06:32:27;;;;;;;8.45;7.10;;;5.90;99.90;;;;;;5051828;28;20177;-75
2022/12/03 06:34:55;;;;;;;9.30;6.80;;;5.90;99.90;;;;;;5051503;28;20215;-75
2022/12/03 06:37:21;;;;;;;8.27;6.70;;;5.90;99.90;;;;;;5041616;28;20169;-75
2022/12/03 06:39:47;;;;;;;10.00;7.37;;;5.90;99.90;;;;;;5031834;28;20227;-75
2022/12/03 06:42:13;;;;;;;11.23;7.97;;;6.00;99.90;;;;;;5032587;28;20556;-75
2022/12/03 06:44:38;;;;;;;9.03;6.40;;;5.90;99.90;;;;;;5033341;28;20162;-75
2022/12/03 06:47:04;;;;;;;10.57;7.13;;;6.00;99.90;;;;;;5032977;28;20684;-76
2022/12/03 06:49:30;;;;;;;9.00;6.30;;;6.00;99.90;;;;;;5030385;28;20181;-75
2022/12/03 06:51:56;;;;;;;9.70;6.30;;;6.00;99.90;;;;;;5030894;28;21043;-76
2022/12/03 06:54:21;;;;;;;8.10;6.57;;;6.00;99.90;;;;;;5013450;28;20208;-76
2022/12/03 06:56:47;;;;;;;9.00;6.80;;;5.90;99.90;;;;;;5030331;28;20181;-76
2022/12/03 06:59:13;;;;;;;9.50;7.33;;;5.90;99.90;;;;;;5029051;28;20173;-76
2022/12/03 07:01:39;;;;;;;8.17;5.67;;;5.90;99.90;;;;;;5029244;28;20507;-76
2022/12/03 07:04:04;;;;;;;9.53;5.70;;;5.90;99.90;;;;;;5031583;28;20588;-76
2022/12/03 07:06:30;;;;;;;9.80;7.07;;;5.90;99.90;;;;;;5031172;28;20927;-76
2022/12/03 07:08:56;;;;;;;6.97;5.33;;;5.90;99.90;;;;;;5031312;28;20568;-76
2022/12/03 07:11:31;;;;;;;10.93;7.23;;;5.90;99.90;;;;;;5029510;28;21132;-76
2022/12/03 07:14:01;;;;;;;7.88;5.85;;;5.90;99.90;;;;;;5031528;28;20184;-75
2022/12/03 07:16:27;;;;;;;10.07;6.45;;;5.90;99.90;;;;;;5030987;28;20213;-75
2022/12/03 07:18:53;;;;;;;8.60;5.90;;;5.90;99.90;;;;;;5031151;28;20768;-75
2022/12/03 07:21:21;;;;;;;10.25;6.60;;;5.90;99.90;;;;;;5029801;28;20923;-76
2022/12/03 07:23:46;;;;;;;9.53;6.73;;;6.00;99.90;;;;;;5034207;28;20256;-76
2022/12/03 07:26:12;;;;;;;9.70;6.47;;;6.00;99.90;;;;;;5030636;28;20687;-75
2022/12/03 07:28:38;;;;;;;11.63;7.80;;;6.00;99.90;;;;;;5030364;28;20170;-74
2022/12/03 07:31:04;;;;;;;11.80;7.83;;;6.00;99.90;;;;;;5029565;28;20174;-75
2022/12/03 07:33:30;;;;;;;7.93;5.82;;;6.00;99.90;;;;;;5031235;28;20205;-75
2022/12/03 07:35:56;;;;;;;10.77;7.03;;;5.90;99.90;;;;;;5030543;28;20287;-75
2022/12/03 07:38:23;;;;;;;10.52;7.72;;;5.90;99.90;;;;;;5030480;28;20201;-75
2022/12/03 07:40:49;;;;;;;9.17;7.33;;;5.90;99.90;;;;;;5030995;28;20186;-75
2022/12/03 07:43:15;;;;;;;8.47;6.40;;;5.90;99.90;;;;;;5028796;28;20580;-75
2022/12/03 07:45:41;;;;;;;10.50;6.63;;;5.90;99.90;;;;;;5029143;28;20241;-75
2022/12/03 07:48:06;;;;;;;9.20;6.40;;;5.90;99.90;;;;;;5030086;28;20196;-74
2022/12/03 07:50:48;;;;;;;9.35;7.40;;;5.90;99.90;;;;;;4996845;28;20212;-75
2022/12/03 07:53:14;;;;;;;10.07;7.00;;;5.90;99.90;;;;;;5030150;28;20192;-75
2022/12/03 07:55:40;;;;;;;8.65;6.47;;;5.90;99.90;;;;;;5030171;28;20205;-76
2022/12/03 07:58:06;;;;;;;8.20;6.00;;;5.90;99.90;;;;;;5011825;28;20269;-79
2022/12/03 08:00:32;;;;;;;7.28;5.63;;;5.90;99.90;;;;;;5031720;28;20177;-79
2022/12/03 08:02:58;;;;;;;7.73;5.97;;;5.90;99.90;;;;;;5029950;28;20173;-79
2022/12/03 08:05:25;;;;;;;8.23;5.70;;;5.90;99.90;;;;;;5030291;28;20579;-79
2022/12/03 08:07:51;;;;;;;10.27;7.75;;;6.00;99.90;;;;;;5030153;28;20261;-79
2022/12/03 08:10:17;;;;;;;9.40;6.07;;;5.90;99.90;;;;;;5012866;28;20268;-80
2022/12/03 08:12:43;;;;;;;10.00;8.17;;;5.90;99.90;;;;;;5012116;28;20196;-80
2022/12/03 08:15:22;;;;;;;7.63;5.60;;;6.00;99.90;;;;;;5030121;28;20627;-79
2022/12/03 08:17:57;;;;;;;11.80;7.07;;;5.90;99.90;;;;;;5028362;28;20638;-80
2022/12/03 08:20:27;;;;;;;9.85;6.70;;;5.90;99.90;;;;;;5030295;28;20582;-78
2022/12/03 08:22:54;;;;;;;7.63;5.60;;;5.90;99.90;;;;;;5030056;28;20527;-79
2022/12/03 08:25:21;;;;;;;9.05;5.70;;;5.90;99.90;;;;;;5029708;28;20197;-79
2022/12/03 08:27:48;;;;;;;8.98;6.32;;;5.90;99.90;;;;;;5029732;28;20177;-79
2022/12/03 08:30:15;;;;;;;8.90;5.75;;;6.00;99.90;;;;;;5028570;28;20241;-79
2022/12/03 08:32:42;;;;;;;11.00;7.07;;;6.00;99.90;;;;;;5029802;28;20185;-80
2022/12/03 08:35:22;;;;;;;6.75;5.30;;;6.00;99.90;;;;;;5030323;28;20205;-79
2022/12/03 08:37:59;;;;;;;9.18;5.63;;;6.00;99.90;;;;;;5031681;28;20165;-79
2022/12/03 08:40:35;;;;;;;10.88;7.32;;;6.00;99.90;;;;;;5029943;28;20169;-79
2022/12/03 08:43:31;;;;;;;8.32;5.95;;;5.90;99.90;;;;;;5029583;28;20176;-79
2022/12/03 08:45:57;;;;;;;8.07;6.00;;;5.90;99.90;;;;;;4995366;28;20224;-79
2022/12/03 08:48:37;;;;;;;9.65;6.50;;;5.90;99.90;;;;;;5028573;28;20173;-79
2022/12/03 08:51:20;;;;;;;8.05;6.45;;;5.90;99.90;;;;;;5042533;28;20161;-78
2022/12/03 08:54:13;;;;;;;9.05;6.30;;;5.90;99.90;;;;;;5051933;28;20162;-80
2022/12/03 08:56:40;;;;;;;7.22;5.80;;;5.90;99.90;;;;;;5039125;28;20315;-81
2022/12/03 08:59:28;;;;;;;9.48;6.82;;;6.00;99.90;;;;;;5011931;28;20635;-82
2022/12/03 09:01:54;;;;;;;7.80;5.65;;;6.00;99.90;;;;;;5029184;28;20173;-82
2022/12/03 09:04:26;;;;;;;7.40;5.07;;;6.00;99.90;;;;;;5012511;28;20170;-82
2022/12/03 09:06:52;;;;;;;7.25;5.47;;;6.10;99.90;;;;;;5030023;28;20217;-81
2022/12/03 09:09:18;;;;;;;8.55;5.25;;;6.10;99.90;;;;;;5030356;28;20177;-80
2022/12/03 09:11:45;;;;;;;11.33;7.80;;;6.20;99.90;;;;;;5029413;28;20169;-80
2022/12/03 09:14:12;;;;;;;10.65;7.32;;;6.20;99.90;;;;;;5030334;28;20565;-80
2022/12/03 09:16:37;;;;;;;8.45;5.72;;;6.20;99.90;;;;;;5038779;28;20260;-80
2022/12/03 09:19:05;;;;;;;9.93;7.60;;;6.30;99.90;;;;;;5035510;28;20205;-81
2022/12/03 09:21:31;;;;;;;7.95;5.68;;;6.30;99.90;;;;;;5034029;28;20968;-80
2022/12/03 09:23:57;;;;;;;8.57;5.75;;;6.40;99.90;;;;;;5031718;28;20185;-80
2022/12/03 09:26:23;;;;;;;7.50;5.23;;;6.40;99.90;;;;;;5034796;28;20197;-80
2022/12/03 09:28:49;;;;;;;11.25;6.80;;;6.40;99.90;;;;;;5027398;28;20584;-80
2022/12/03 09:31:15;;;;;;;8.50;5.50;;;6.40;99.90;;;;;;5031820;28;20170;-80
2022/12/03 09:33:41;;;;;;;10.02;6.72;;;6.50;99.90;;;;;;5029867;28;20231;-79
2022/12/03 09:36:08;;;;;;;9.18;6.30;;;6.40;99.90;;;;;;5031678;28;20276;-79
2022/12/03 09:38:34;;;;;;;9.63;6.85;;;6.50;99.90;;;;;;5032447;28;20165;-80
2022/12/03 09:40:59;;;;;;;14.43;7.50;;;6.50;99.90;;;;;;5031771;28;20181;-80
2022/12/03 09:43:31;;;;;;;8.63;5.70;;;6.40;99.90;;;;;;5031905;28;20596;-80
2022/12/03 09:45:57;;;;;;;7.85;5.65;;;6.40;99.90;;;;;;5031457;28;20201;-80
2022/12/03 09:48:23;;;;;;;9.10;6.55;;;6.40;99.90;;;;;;5033347;28;20876;-80
2022/12/03 09:50:49;;;;;;;8.70;6.43;;;6.40;99.90;;;;;;5041220;28;20247;-81
2022/12/03 09:53:20;;;;;;;7.68;5.40;;;6.40;99.90;;;;;;5053437;28;20260;-81
2022/12/03 09:55:48;;;;;;;7.47;5.45;;;6.40;99.90;;;;;;5051052;28;20213;-80
2022/12/03 09:58:17;;;;;;;9.27;7.40;;;6.40;99.90;;;;;;5052018;28;20252;-80
2022/12/03 10:00:46;;;;;;;9.18;7.03;;;6.40;99.90;;;;;;5053328;28;20161;-81
2022/12/03 10:03:16;;;;;;;10.73;6.93;;;6.40;99.90;;;;;;5050789;28;20255;-80
2022/12/03 10:05:42;;;;;;;9.70;7.25;;;6.30;99.90;;;;;;5034790;28;20226;-81
2022/12/03 10:08:16;;;;;;;7.70;6.40;;;6.30;99.90;;;;;;5053524;28;20173;-81
2022/12/03 10:10:42;;;;;;;8.65;5.82;;;6.20;99.90;;;;;;5052448;28;20172;-81
2022/12/03 10:13:14;;;;;;;8.18;6.55;;;6.30;99.90;;;;;;5051664;28;20188;-81
2022/12/03 10:15:40;;;;;;;8.68;7.07;;;6.30;99.90;;;;;;5050501;28;20208;-82
2022/12/03 10:18:17;;;;;;;9.90;6.63;;;6.30;99.90;;;;;;5050370;28;20169;-82
2022/12/03 10:20:43;;;;;;;7.50;6.15;;;6.30;99.90;;;;;;5051514;28;20593;-81
2022/12/03 10:23:08;;;;;;;9.13;6.63;;;6.30;99.90;;;;;;5050666;28;20184;-81
2022/12/03 10:25:49;;;;;;;8.80;6.00;;;6.30;99.90;;;;;;5050502;28;20613;-81
2022/12/03 10:28:30;;;;;;;8.57;6.43;;;6.30;99.90;;;;;;5050685;28;20164;-81
2022/12/03 10:30:56;;;;;;;8.27;5.93;;;6.40;99.90;;;;;;5054672;28;20173;-81
2022/12/03 10:33:32;;;;;;;7.30;6.10;;;6.50;99.90;;;;;;5050652;28;20605;-82
2022/12/03 10:36:13;;;;;;;9.15;5.90;;;6.60;99.90;;;;;;5037143;28;20295;-81
2022/12/03 10:38:39;;;;;;;7.25;5.88;;;6.60;99.90;;;;;;5031627;28;20208;-81
2022/12/03 10:41:26;;;;;;;9.40;6.43;;;6.60;99.90;;;;;;5033759;28;20193;-81
2022/12/03 10:43:52;;;;;;;6.45;5.82;;;6.70;99.90;;;;;;5033479;28;21205;-81
2022/12/03 10:46:21;;;;;;;8.15;5.40;;;6.80;99.90;;;;;;5033087;28;20209;-81
2022/12/03 10:49:08;;;;;;;8.55;6.40;;;6.80;99.90;;;;;;5037876;28;20166;-82
2022/12/03 10:51:34;;;;;;;7.75;5.72;;;6.90;99.90;;;;;;5042793;28;20178;-80
2022/12/03 10:54:01;;;;;;;10.27;5.55;;;6.90;99.90;;;;;;5055947;28;20624;-80
2022/12/03 10:56:27;;;;;;;8.68;6.57;;;6.80;99.90;;;;;;5047671;28;20247;-81
2022/12/03 10:58:54;;;;;;;8.43;6.35;;;6.90;99.90;;;;;;5036249;28;20221;-81
2022/12/03 11:01:25;;;;;;;8.57;6.78;;;6.90;99.90;;;;;;5030246;28;20166;-81
2022/12/03 11:03:52;;;;;;;9.05;6.68;;;6.90;99.90;;;;;;5031477;28;20177;-81
2022/12/03 11:06:21;;;;;;;7.32;5.97;;;6.90;99.90;;;;;;5027662;28;20216;-80
2022/12/03 11:08:50;;;;;;;8.30;6.05;;;6.90;99.90;;;;;;5042643;28;20184;-80
2022/12/03 11:11:23;;;;;;;8.55;6.70;;;6.90;99.90;;;;;;5028449;28;20628;-80
2022/12/03 11:13:57;;;;;;;8.32;6.18;;;6.90;99.90;;;;;;5007502;28;20209;-81
2022/12/03 11:16:38;;;;;;;6.97;6.10;;;7.00;99.90;;;;;;5025308;28;20201;-80
2022/12/03 11:19:11;;;;;;;9.07;6.57;;;7.00;99.90;;;;;;5007915;28;20174;-80
2022/12/03 11:22:05;;;;;;;8.27;6.47;;;7.10;99.90;;;;;;5004642;28;20182;-81
2022/12/03 11:24:39;;;;;;;8.35;6.45;;;7.10;99.90;;;;;;5022431;28;20186;-80
2022/12/03 11:27:14;;;;;;;7.03;5.97;;;7.10;99.90;;;;;;5030300;28;20213;-81
2022/12/03 11:30:00;;;;;;;9.63;7.72;;;7.10;99.90;;;;;;5018696;28;20187;-81
2022/12/03 11:32:42;;;;;;;8.13;6.45;;;7.10;99.90;;;;;;5034055;28;20651;-81
2022/12/03 11:35:25;;;;;;;8.57;6.13;;;7.10;99.90;;;;;;5031949;28;20201;-81
2022/12/03 11:37:54;;;;;;;8.95;6.53;;;7.20;99.90;;;;;;5031103;28;20303;-80
2022/12/03 11:40:19;;;;;;;9.63;7.07;;;7.20;99.90;;;;;;5031287;28;20587;-83
2022/12/03 11:42:50;;;;;;;8.43;6.63;;;7.20;99.90;;;;;;5032765;28;20162;-82
2022/12/03 11:45:34;;;;;;;10.80;7.20;;;7.10;99.90;;;;;;5034314;28;20657;-82
2022/12/03 11:48:10;;;;;;;9.48;5.93;;;7.20;99.90;;;;;;5031525;28;20165;-81
2022/12/03 11:50:39;;;;;;;8.50;6.32;;;7.20;99.90;;;;;;5031902;28;20498;-80
2022/12/03 11:53:22;;;;;;;8.30;6.00;;;7.20;99.90;;;;;;5015271;28;20243;-81
2022/12/03 11:56:01;;;;;;;6.57;5.57;;;7.20;99.90;;;;;;5031510;28;20214;-81
2022/12/03 11:58:29;;;;;;;8.13;6.55;;;7.20;99.90;;;;;;5001218;28;20649;-81
2022/12/03 12:00:57;;;;;;;8.68;6.60;;;7.20;99.90;;;;;;5024660;28;20794;-81
2022/12/03 12:03:31;;;;;;;9.68;6.68;;;7.20;99.90;;;;;;5030847;28;20177;-82
2022/12/03 12:06:12;;;;;;;10.95;8.75;;;7.20;99.90;;;;;;5034668;23;20725;-83
2022/12/03 12:08:59;;;;;;;11.88;8.13;;;7.00;99.90;;;;;;4985743;28;20162;-83
2022/12/03 12:11:36;;;;;;;9.30;7.10;;;7.00;99.90;;;;;;4992079;28;20183;-84
2022/12/03 12:14:07;;;;;;;10.00;7.82;;;7.00;99.90;;;;;;4990402;28;20257;-82
2022/12/03 12:16:51;;;;;;;12.52;8.00;;;7.00;99.90;;;;;;4991718;28;20209;-83
2022/12/03 12:19:36;;;;;;;10.95;8.30;;;7.00;99.90;;;;;;4993955;28;20818;-83
2022/12/03 12:22:11;;;;;;;9.30;6.70;;;7.00;99.90;;;;;;4991025;28;20170;-82
2022/12/03 12:24:41;;;;;;;10.68;8.18;;;7.00;99.90;;;;;;4990909;28;20179;-83
2022/12/03 12:27:08;;;;;;;12.25;7.75;;;7.00;99.90;;;;;;5000238;28;20278;-82
2022/12/03 12:29:39;;;;;;;11.52;8.50;;;7.00;99.90;;;;;;4980018;28;20186;-83
2022/12/03 12:32:08;;;;;;;10.52;8.75;;;7.00;99.90;;;;;;5004202;28;20173;-83
2022/12/03 12:34:37;;;;;;;12.30;8.82;;;7.00;99.90;;;;;;4998096;28;20186;-83
2022/12/03 12:37:07;;;;;;;13.80;10.48;;;6.90;99.90;;;;;;4995684;28;20182;-82
2022/12/03 12:39:34;;;;;;;13.35;9.90;;;6.90;99.90;;;;;;5000415;28;20178;-81
2022/12/03 12:42:01;;;;;;;11.55;8.73;;;6.80;99.90;;;;;;5001292;28;20201;-82
2022/12/03 12:44:27;;;;;;;11.63;8.85;;;6.90;99.90;;;;;;4999805;28;20182;-83
2022/12/03 12:46:53;;;;;;;10.90;9.40;;;6.80;99.90;;;;;;4986685;28;20794;-83
2022/12/03 12:49:25;;;;;;;11.70;8.73;;;6.90;99.90;;;;;;4992831;28;20650;-81
2022/12/03 12:51:52;;;;;;;11.05;8.73;;;6.90;99.90;;;;;;4999983;28;20229;-82
2022/12/03 12:54:18;;;;;;;9.80;8.57;;;6.90;99.90;;;;;;4999663;28;20167;-81
2022/12/03 12:56:48;;;;;;;12.13;9.20;;;6.90;99.90;;;;;;4994642;28;20567;-83
2022/12/03 12:59:22;;;;;;;12.13;8.80;;;6.90;99.90;;;;;;4995570;28;20581;-82
2022/12/03 13:01:49;;;;;;;11.90;9.50;;;6.90;99.90;;;;;;4998038;28;20628;-84
2022/12/03 13:04:21;;;;;;;13.70;9.85;;;6.90;99.90;;;;;;4999442;28;20166;-83
2022/12/03 13:06:50;;;;;;;13.65;10.57;;;6.90;99.90;;;;;;4980461;28;20545;-82
2022/12/03 13:09:23;;;;;;;11.70;9.50;;;6.90;99.90;;;;;;4995503;28;20171;-82
2022/12/03 13:12:02;;;;;;;9.77;8.70;;;6.90;99.90;;;;;;4991384;28;20175;-82
2022/12/03 13:14:31;;;;;;;11.50;8.70;;;6.90;99.90;;;;;;4995984;28;20179;-81
2022/12/03 13:17:00;;;;;;;13.40;9.95;;;7.00;99.90;;;;;;4991964;28;20210;-82
2022/12/03 13:19:33;;;;;;;10.98;8.68;;;7.00;99.90;;;;;;5000896;28;20167;-82